Time;durP1;ratioP1;P1;durP2;ratioP2;P2;SDS_P1;SDS_P2;PMS_P1;PMS_P2;Temp;Humidity;BMP_temperature;BMP_pressure;BME280_temperature;BME280_humidity;BME280_pressure;Samples;Min_cycle;Max_cycle;Signal;HPM_P1;HPM_P2
2023/03/28 00:01:55;;;;;;;10.25;4.32;;;;;;;;;;5051830;28;20506;-57
2023/03/28 00:04:22;;;;;;;4.85;2.35;;;;;;;;;;5054159;28;20033;-58
2023/03/28 00:06:48;;;;;;;8.55;2.97;;;;;;;;;;5049937;28;20040;-57
2023/03/28 00:09:15;;;;;;;7.40;2.70;;;;;;;;;;5030524;28;20048;-57
2023/03/28 00:11:42;;;;;;;9.02;2.47;;;;;;;;;;5052631;28;20041;-58
2023/03/28 00:14:08;;;;;;;5.93;2.83;;;;;;;;;;5058600;28;20181;-59
2023/03/28 00:16:35;;;;;;;5.93;2.45;;;;;;;;;;5048703;28;20232;-57
2023/03/28 00:19:02;;;;;;;10.13;2.83;;;;;;;;;;5052356;28;20497;-57
2023/03/28 00:21:30;;;;;;;8.25;2.42;;;;;;;;;;5051571;28;20041;-57
2023/03/28 00:24:00;;;;;;;6.13;2.33;;;;;;;;;;5030510;28;20033;-57
2023/03/28 00:26:27;;;;;;;6.07;2.70;;;;;;;;;;5048023;28;20037;-58
2023/03/28 00:28:54;;;;;;;7.80;2.00;;;;;;;;;;5051545;28;20045;-57
2023/03/28 00:31:21;;;;;;;6.45;2.55;;;;;;;;;;5046904;28;20458;-57
2023/03/28 00:33:47;;;;;;;9.43;2.67;;;;;;;;;;5052846;28;20484;-57
2023/03/28 00:36:17;;;;;;;7.03;2.10;;;;;;;;;;5047433;28;20037;-58
2023/03/28 00:38:44;;;;;;;11.50;3.13;;;;;;;;;;5046104;28;20041;-57
2023/03/28 00:41:10;;;;;;;6.82;2.47;;;;;;;;;;5028385;28;20048;-58
2023/03/28 00:43:44;;;;;;;7.20;3.00;;;;;;;;;;5051450;28;20080;-57
2023/03/28 00:46:14;;;;;;;14.20;3.00;;;;;;;;;;5028385;28;20124;-58
2023/03/28 00:48:42;;;;;;;6.07;2.40;;;;;;;;;;5030056;28;20190;-57
2023/03/28 00:51:09;;;;;;;6.22;2.10;;;;;;;;;;5059723;28;20039;-57
2023/03/28 00:53:36;;;;;;;7.53;2.08;;;;;;;;;;5050966;28;20037;-57
2023/03/28 00:56:05;;;;;;;13.52;2.80;;;;;;;;;;5048620;28;20414;-57
2023/03/28 00:58:34;;;;;;;12.75;3.33;;;;;;;;;;5048944;28;20073;-57
2023/03/28 01:01:00;;;;;;;9.43;1.92;;;;;;;;;;5059565;28;20119;-58
2023/03/28 01:03:29;;;;;;;4.72;2.35;;;;;;;;;;5046783;28;20102;-57
2023/03/28 01:05:56;;;;;;;10.35;2.50;;;;;;;;;;5041459;28;20235;-58
2023/03/28 01:08:28;;;;;;;6.97;2.72;;;;;;;;;;5039059;28;20033;-58
2023/03/28 01:10:55;;;;;;;5.45;2.40;;;;;;;;;;5049555;28;20032;-57
2023/03/28 01:13:25;;;;;;;7.70;2.90;;;;;;;;;;5049210;28;20044;-57
2023/03/28 01:15:51;;;;;;;10.98;2.67;;;;;;;;;;5036606;28;20041;-58
2023/03/28 01:18:21;;;;;;;8.90;2.15;;;;;;;;;;5035206;28;20052;-57
2023/03/28 01:21:05;;;;;;;12.27;2.45;;;;;;;;;;5049766;28;20401;-57
2023/03/28 01:23:50;;;;;;;8.07;2.60;;;;;;;;;;5058786;28;20451;-57
2023/03/28 01:26:31;;;;;;;9.65;2.58;;;;;;;;;;5052801;28;20064;-58
2023/03/28 01:29:04;;;;;;;8.07;2.63;;;;;;;;;;5052299;28;20052;-57
2023/03/28 01:31:49;;;;;;;10.00;2.38;;;;;;;;;;5060583;28;20041;-57
2023/03/28 01:34:34;;;;;;;13.80;2.67;;;;;;;;;;5058885;28;20366;-57
2023/03/28 01:37:09;;;;;;;10.88;2.63;;;;;;;;;;5049159;28;20049;-57
2023/03/28 01:39:44;;;;;;;10.00;4.50;;;;;;;;;;5051870;28;20103;-57
2023/03/28 01:42:29;;;;;;;8.88;3.17;;;;;;;;;;5054117;28;20124;-57
2023/03/28 01:44:55;;;;;;;13.75;3.72;;;;;;;;;;5050152;28;20079;-57
2023/03/28 01:47:25;;;;;;;11.27;3.63;;;;;;;;;;5052626;28;20037;-57
2023/03/28 01:50:02;;;;;;;9.98;2.90;;;;;;;;;;5051921;28;20398;-57
2023/03/28 01:52:40;;;;;;;8.15;2.40;;;;;;;;;;5054007;28;20135;-57
2023/03/28 01:55:13;;;;;;;8.98;2.35;;;;;;;;;;5052058;28;20090;-57
2023/03/28 01:57:50;;;;;;;10.23;3.45;;;;;;;;;;5032580;28;20041;-57
2023/03/28 02:00:23;;;;;;;5.68;2.20;;;;;;;;;;5056040;28;20079;-58
2023/03/28 02:02:50;;;;;;;15.95;3.05;;;;;;;;;;5052519;28;20048;-57
2023/03/28 02:05:18;;;;;;;8.52;2.70;;;;;;;;;;5048104;28;20041;-57
2023/03/28 02:07:45;;;;;;;10.90;2.95;;;;;;;;;;5036312;28;20049;-57
2023/03/28 02:10:13;;;;;;;11.50;2.97;;;;;;;;;;5055230;28;20037;-57
2023/03/28 02:12:51;;;;;;;49.55;5.22;;;;;;;;;;5047846;28;20445;-58
2023/03/28 02:15:19;;;;;;;8.30;2.67;;;;;;;;;;5052594;28;20044;-58
2023/03/28 02:17:49;;;;;;;14.68;3.05;;;;;;;;;;5035643;28;20100;-57
2023/03/28 02:20:18;;;;;;;9.77;2.58;;;;;;;;;;5053022;28;20060;-57
2023/03/28 02:23:00;;;;;;;13.70;3.47;;;;;;;;;;5051081;28;20494;-57
2023/03/28 02:25:26;;;;;;;6.13;2.80;;;;;;;;;;5053353;28;20106;-58
2023/03/28 02:27:55;;;;;;;8.98;2.42;;;;;;;;;;5046191;28;20386;-57
2023/03/28 02:30:22;;;;;;;6.20;2.70;;;;;;;;;;5047433;28;20065;-57
2023/03/28 02:32:49;;;;;;;7.30;2.33;;;;;;;;;;5044932;28;20095;-57
2023/03/28 02:35:16;;;;;;;9.20;2.30;;;;;;;;;;5052382;28;20043;-57
2023/03/28 02:37:53;;;;;;;9.73;2.95;;;;;;;;;;5046046;28;20094;-57
2023/03/28 02:40:37;;;;;;;13.43;2.63;;;;;;;;;;5052420;28;20052;-57
2023/03/28 02:43:22;;;;;;;9.07;2.42;;;;;;;;;;5033069;28;20044;-57
2023/03/28 02:45:48;;;;;;;9.77;2.45;;;;;;;;;;5047261;28;20041;-57
2023/03/28 02:48:33;;;;;;;8.00;2.78;;;;;;;;;;5050262;28;20039;-57
2023/03/28 02:51:08;;;;;;;9.82;2.60;;;;;;;;;;5052210;28;20105;-58
2023/03/28 02:53:37;;;;;;;5.22;2.38;;;;;;;;;;5053454;28;20502;-58
2023/03/28 02:56:09;;;;;;;6.68;2.30;;;;;;;;;;5051770;28;20134;-57
2023/03/28 02:58:41;;;;;;;7.82;2.28;;;;;;;;;;5052177;28;20041;-58
2023/03/28 03:01:09;;;;;;;9.23;2.45;;;;;;;;;;5050355;28;20557;-57
2023/03/28 03:03:35;;;;;;;10.43;2.78;;;;;;;;;;5051382;28;20497;-58
2023/03/28 03:06:04;;;;;;;4.55;2.50;;;;;;;;;;5048817;28;20394;-57
2023/03/28 03:08:31;;;;;;;9.55;3.00;;;;;;;;;;5049371;28;20045;-57
2023/03/28 03:10:57;;;;;;;6.28;2.70;;;;;;;;;;5038638;28;20036;-57
2023/03/28 03:13:23;;;;;;;8.43;2.83;;;;;;;;;;5049905;28;20048;-57
2023/03/28 03:15:52;;;;;;;8.48;3.72;;;;;;;;;;5050096;28;20119;-57
2023/03/28 03:18:18;;;;;;;10.20;2.88;;;;;;;;;;5048015;28;20045;-57
2023/03/28 03:20:49;;;;;;;7.35;2.35;;;;;;;;;;5049442;28;20041;-58
2023/03/28 03:23:15;;;;;;;7.00;3.00;;;;;;;;;;5050842;28;20116;-57
2023/03/28 03:25:42;;;;;;;5.43;2.22;;;;;;;;;;5051641;28;20446;-57
2023/03/28 03:28:08;;;;;;;9.98;3.13;;;;;;;;;;5055454;28;20215;-57
2023/03/28 03:30:35;;;;;;;10.45;2.80;;;;;;;;;;5050209;28;20116;-57
2023/03/28 03:33:01;;;;;;;9.80;2.70;;;;;;;;;;5049512;28;20192;-57
2023/03/28 03:35:33;;;;;;;13.30;2.88;;;;;;;;;;5050666;28;20123;-58
2023/03/28 03:38:00;;;;;;;16.77;2.70;;;;;;;;;;5054045;28;20091;-57
2023/03/28 03:40:26;;;;;;;10.13;2.22;;;;;;;;;;5051285;28;20103;-57
2023/03/28 03:42:52;;;;;;;8.48;2.90;;;;;;;;;;5049785;28;20064;-57
2023/03/28 03:45:18;;;;;;;5.00;2.10;;;;;;;;;;5029246;28;20056;-57
2023/03/28 03:47:44;;;;;;;4.75;2.17;;;;;;;;;;5029035;28;20042;-57
2023/03/28 03:50:12;;;;;;;9.55;2.72;;;;;;;;;;5030229;28;20037;-57
2023/03/28 03:52:38;;;;;;;15.10;2.83;;;;;;;;;;5034558;28;20049;-57
2023/03/28 03:55:05;;;;;;;19.45;4.25;;;;;;;;;;5028676;28;20041;-57
2023/03/28 03:57:31;;;;;;;10.73;2.60;;;;;;;;;;5038077;28;20094;-57
2023/03/28 03:59:58;;;;;;;9.07;2.75;;;;;;;;;;5038050;28;20041;-57
2023/03/28 04:02:25;;;;;;;6.03;2.08;;;;;;;;;;5020972;28;20053;-58
2023/03/28 04:04:52;;;;;;;9.93;2.65;;;;;;;;;;5012355;28;20144;-57
2023/03/28 04:07:18;;;;;;;7.32;2.95;;;;;;;;;;5039858;28;20102;-58
2023/03/28 04:09:45;;;;;;;6.55;2.50;;;;;;;;;;5037582;28;20060;-57
2023/03/28 04:12:11;;;;;;;9.18;3.10;;;;;;;;;;4996182;28;20129;-57
2023/03/28 04:14:37;;;;;;;6.38;3.33;;;;;;;;;;5030985;28;20045;-57
2023/03/28 04:17:04;;;;;;;6.13;3.38;;;;;;;;;;5032048;28;20509;-57
2023/03/28 04:19:30;;;;;;;18.05;2.72;;;;;;;;;;5035318;28;20167;-58
2023/03/28 04:21:56;;;;;;;5.85;2.55;;;;;;;;;;5035840;28;20079;-57
2023/03/28 04:24:26;;;;;;;6.82;2.35;;;;;;;;;;5031733;28;20037;-57
2023/03/28 04:26:55;;;;;;;7.28;2.83;;;;;;;;;;5038455;28;20101;-57
2023/03/28 04:29:29;;;;;;;5.82;2.40;;;;;;;;;;5036134;28;20041;-57
2023/03/28 04:31:56;;;;;;;9.70;2.88;;;;;;;;;;5032134;28;20447;-57
2023/03/28 04:34:28;;;;;;;10.85;2.42;;;;;;;;;;5033081;28;20588;-57
2023/03/28 04:36:55;;;;;;;8.38;2.80;;;;;;;;;;5035484;28;20131;-57
2023/03/28 04:39:22;;;;;;;8.80;2.70;;;;;;;;;;5030917;28;20445;-57
2023/03/28 04:41:48;;;;;;;6.55;2.45;;;;;;;;;;5029893;28;20106;-57
2023/03/28 04:44:14;;;;;;;6.10;2.85;;;;;;;;;;5043925;28;20086;-57
2023/03/28 04:46:41;;;;;;;11.10;3.05;;;;;;;;;;5045138;28;20072;-57
2023/03/28 04:49:07;;;;;;;12.18;2.75;;;;;;;;;;5049300;28;20143;-57
2023/03/28 04:51:33;;;;;;;4.25;2.40;;;;;;;;;;5048782;28;20075;-57
2023/03/28 04:53:59;;;;;;;6.18;2.45;;;;;;;;;;5032428;28;20037;-57
2023/03/28 04:56:26;;;;;;;6.97;2.67;;;;;;;;;;5049065;28;20493;-57
2023/03/28 04:58:52;;;;;;;5.88;2.38;;;;;;;;;;5017922;28;20532;-57
2023/03/28 05:01:18;;;;;;;11.50;3.03;;;;;;;;;;5051729;28;20041;-57
2023/03/28 05:03:44;;;;;;;12.63;3.28;;;;;;;;;;5049164;28;20531;-57
2023/03/28 05:06:10;;;;;;;5.75;2.92;;;;;;;;;;5027619;28;20049;-60
2023/03/28 05:08:37;;;;;;;4.55;2.35;;;;;;;;;;5050886;28;20039;-57
2023/03/28 05:11:03;;;;;;;8.70;2.05;;;;;;;;;;5050447;28;20041;-57
2023/03/28 05:13:29;;;;;;;8.65;2.58;;;;;;;;;;5047353;28;20410;-56
2023/03/28 05:15:55;;;;;;;9.60;2.47;;;;;;;;;;5046154;28;20043;-57
2023/03/28 05:18:22;;;;;;;21.35;2.60;;;;;;;;;;5056220;28;20115;-57
2023/03/28 05:20:48;;;;;;;9.23;2.60;;;;;;;;;;5052439;28;20144;-57
2023/03/28 05:23:14;;;;;;;11.20;2.28;;;;;;;;;;5049124;28;20091;-57
2023/03/28 05:25:40;;;;;;;10.48;2.55;;;;;;;;;;5031106;28;20211;-56
2023/03/28 05:28:06;;;;;;;8.32;2.03;;;;;;;;;;5054890;28;20037;-57
2023/03/28 05:30:33;;;;;;;9.63;2.90;;;;;;;;;;5049595;28;20131;-57
2023/03/28 05:32:59;;;;;;;11.45;2.75;;;;;;;;;;5048904;28;20073;-60
2023/03/28 05:35:25;;;;;;;5.57;2.45;;;;;;;;;;5048367;28;20405;-57
2023/03/28 05:37:51;;;;;;;4.03;2.50;;;;;;;;;;5048520;28;20128;-57
2023/03/28 05:40:18;;;;;;;7.70;2.85;;;;;;;;;;5032119;28;20048;-58
2023/03/28 05:42:44;;;;;;;6.35;2.90;;;;;;;;;;5045176;28;20048;-57
2023/03/28 05:45:14;;;;;;;9.32;2.58;;;;;;;;;;5034494;28;20045;-57
2023/03/28 05:47:40;;;;;;;6.80;2.72;;;;;;;;;;5042221;28;20090;-58
2023/03/28 05:50:07;;;;;;;7.35;2.08;;;;;;;;;;5042558;28;20399;-57
2023/03/28 05:52:33;;;;;;;10.63;3.70;;;;;;;;;;5043078;28;20120;-58
2023/03/28 05:54:59;;;;;;;6.15;2.20;;;;;;;;;;5026060;28;20037;-56
2023/03/28 05:57:25;;;;;;;8.73;2.88;;;;;;;;;;5027189;28;20087;-57
2023/03/28 05:59:52;;;;;;;5.88;2.28;;;;;;;;;;5047645;28;20451;-56
2023/03/28 06:02:20;;;;;;;4.05;2.28;;;;;;;;;;5050269;28;20068;-57
2023/03/28 06:04:46;;;;;;;7.03;2.80;;;;;;;;;;5022945;28;20075;-56
2023/03/28 06:07:12;;;;;;;6.28;2.33;;;;;;;;;;5037608;28;20038;-56
2023/03/28 06:09:39;;;;;;;6.13;2.70;;;;;;;;;;5044999;28;20032;-56
2023/03/28 06:12:05;;;;;;;7.40;2.17;;;;;;;;;;5029762;28;20037;-57
2023/03/28 06:14:32;;;;;;;4.53;2.15;;;;;;;;;;5032138;28;20494;-56
2023/03/28 06:16:58;;;;;;;4.45;1.77;;;;;;;;;;5049389;28;20041;-57
2023/03/28 06:19:25;;;;;;;4.57;2.25;;;;;;;;;;5042964;28;20040;-56
2023/03/28 06:21:51;;;;;;;12.73;2.83;;;;;;;;;;5029543;28;20146;-57
2023/03/28 06:24:17;;;;;;;6.82;1.88;;;;;;;;;;5048962;28;20539;-57
2023/03/28 06:26:43;;;;;;;6.45;2.42;;;;;;;;;;5027807;28;20486;-56
2023/03/28 06:29:10;;;;;;;3.75;1.67;;;;;;;;;;5047854;28;20064;-56
2023/03/28 06:31:37;;;;;;;10.38;1.92;;;;;;;;;;5029592;28;20058;-57
2023/03/28 06:34:03;;;;;;;8.00;1.77;;;;;;;;;;5033367;28;20048;-57
2023/03/28 06:36:29;;;;;;;5.35;1.73;;;;;;;;;;5031205;28;20037;-57
2023/03/28 06:38:57;;;;;;;6.18;1.77;;;;;;;;;;5047365;28;20063;-57
2023/03/28 06:41:23;;;;;;;6.63;2.13;;;;;;;;;;5034087;28;20041;-57
2023/03/28 06:43:49;;;;;;;10.07;2.17;;;;;;;;;;5030574;28;20061;-57
2023/03/28 06:46:15;;;;;;;5.22;1.88;;;;;;;;;;5031716;28;20064;-57
2023/03/28 06:48:42;;;;;;;4.65;1.83;;;;;;;;;;5048429;28;20083;-57
2023/03/28 06:51:08;;;;;;;8.00;2.10;;;;;;;;;;5053400;28;20719;-57
2023/03/28 06:53:35;;;;;;;6.55;1.75;;;;;;;;;;5053806;28;20040;-57
2023/03/28 06:56:01;;;;;;;7.60;2.70;;;;;;;;;;5031655;28;20042;-57
2023/03/28 06:58:27;;;;;;;6.30;2.30;;;;;;;;;;5048581;28;20353;-56
2023/03/28 07:00:54;;;;;;;10.75;2.63;;;;;;;;;;5042519;28;20625;-56
2023/03/28 07:03:20;;;;;;;5.32;1.70;;;;;;;;;;5052023;28;20525;-57
2023/03/28 07:05:46;;;;;;;5.75;2.00;;;;;;;;;;5030486;28;20073;-56
2023/03/28 07:08:13;;;;;;;11.32;2.20;;;;;;;;;;5049593;28;20036;-56
2023/03/28 07:10:39;;;;;;;7.80;3.08;;;;;;;;;;5051260;28;20052;-56
2023/03/28 07:13:06;;;;;;;3.15;1.65;;;;;;;;;;5049591;28;20077;-56
2023/03/28 07:15:32;;;;;;;7.07;2.05;;;;;;;;;;5045862;28;20041;-56
2023/03/28 07:17:59;;;;;;;4.85;2.30;;;;;;;;;;5048718;28;20509;-57
2023/03/28 07:20:26;;;;;;;4.22;1.80;;;;;;;;;;5051999;28;20072;-56
2023/03/28 07:22:52;;;;;;;4.75;1.92;;;;;;;;;;5049553;28;20049;-57
2023/03/28 07:25:19;;;;;;;4.90;1.70;;;;;;;;;;5050364;28;20458;-57
2023/03/28 07:27:45;;;;;;;4.00;2.35;;;;;;;;;;5048021;28;20080;-56
2023/03/28 07:30:11;;;;;;;5.70;2.17;;;;;;;;;;5049365;28;20026;-56
2023/03/28 07:32:38;;;;;;;3.63;2.00;;;;;;;;;;5051745;28;20080;-58
2023/03/28 07:35:05;;;;;;;8.90;2.25;;;;;;;;;;5047315;28;20041;-57
2023/03/28 07:37:32;;;;;;;7.07;2.17;;;;;;;;;;5051602;28;20036;-57
2023/03/28 07:39:59;;;;;;;4.05;1.58;;;;;;;;;;5050549;28;20452;-57
2023/03/28 07:42:29;;;;;;;4.47;1.55;;;;;;;;;;5051735;28;20083;-57
2023/03/28 07:44:55;;;;;;;8.18;1.65;;;;;;;;;;5031694;28;20049;-56
2023/03/28 07:47:21;;;;;;;7.78;2.03;;;;;;;;;;5048173;28;20485;-57
2023/03/28 07:49:47;;;;;;;3.17;1.70;;;;;;;;;;5030223;28;20037;-56
2023/03/28 07:52:13;;;;;;;4.82;1.67;;;;;;;;;;5050297;28;20118;-57
2023/03/28 07:54:40;;;;;;;5.00;1.30;;;;;;;;;;5048654;28;20048;-57
2023/03/28 07:57:06;;;;;;;3.70;1.52;;;;;;;;;;5054255;28;20420;-57
2023/03/28 07:59:32;;;;;;;6.38;1.52;;;;;;;;;;5050173;28;20472;-57
2023/03/28 08:01:59;;;;;;;3.63;1.60;;;;;;;;;;5049801;28;20281;-57
2023/03/28 08:04:25;;;;;;;2.72;1.65;;;;;;;;;;5031675;28;20048;-56
2023/03/28 08:06:52;;;;;;;2.75;1.33;;;;;;;;;;5051869;28;20617;-56
2023/03/28 08:09:18;;;;;;;4.47;1.55;;;;;;;;;;5047890;28;20221;-57
2023/03/28 08:11:45;;;;;;;3.38;1.52;;;;;;;;;;5049070;28;20037;-56
2023/03/28 08:14:12;;;;;;;4.47;1.00;;;;;;;;;;5050312;28;20043;-57
2023/03/28 08:16:40;;;;;;;3.13;1.20;;;;;;;;;;5048089;28;20122;-57
2023/03/28 08:19:06;;;;;;;6.45;1.13;;;;;;;;;;5048561;28;20376;-56
2023/03/28 08:21:34;;;;;;;3.58;1.80;;;;;;;;;;5055034;28;20040;-56
2023/03/28 08:24:00;;;;;;;4.00;1.50;;;;;;;;;;5046861;28;20053;-57
2023/03/28 08:26:27;;;;;;;2.63;1.20;;;;;;;;;;5049034;28;20605;-57
2023/03/28 08:28:54;;;;;;;3.70;0.88;;;;;;;;;;5049188;28;20049;-56
2023/03/28 08:31:24;;;;;;;3.80;1.60;;;;;;;;;;5050400;28;20048;-56
2023/03/28 08:33:51;;;;;;;4.85;1.48;;;;;;;;;;5050948;28;20110;-56
2023/03/28 08:36:17;;;;;;;6.72;1.60;;;;;;;;;;5048502;28;20044;-56
2023/03/28 08:38:45;;;;;;;6.30;1.05;;;;;;;;;;5030501;28;20045;-56
2023/03/28 08:41:30;;;;;;;3.13;1.20;;;;;;;;;;5052738;28;20056;-56
2023/03/28 08:44:00;;;;;;;4.07;1.27;;;;;;;;;;5046584;28;20053;-57
2023/03/28 08:46:27;;;;;;;5.93;1.15;;;;;;;;;;5049598;28;20036;-56
2023/03/28 08:48:54;;;;;;;3.50;1.00;;;;;;;;;;5047791;28;20037;-56
2023/03/28 08:51:24;;;;;;;3.75;1.42;;;;;;;;;;5053570;28;20098;-57
2023/03/28 08:54:07;;;;;;;3.22;1.15;;;;;;;;;;5031284;28;20059;-56
2023/03/28 08:56:35;;;;;;;4.13;1.30;;;;;;;;;;5047264;28;20051;-57
2023/03/28 08:59:11;;;;;;;2.30;1.05;;;;;;;;;;5059416;28;20127;-56
2023/03/28 09:01:38;;;;;;;2.55;1.10;;;;;;;;;;5043413;28;20269;-56
2023/03/28 09:04:04;;;;;;;4.15;1.10;;;;;;;;;;5043168;28;20136;-56
2023/03/28 09:06:36;;;;;;;6.50;1.30;;;;;;;;;;5054795;28;20175;-55
2023/03/28 09:09:10;;;;;;;3.70;1.33;;;;;;;;;;5050564;28;20114;-56
2023/03/28 09:11:42;;;;;;;4.00;1.42;;;;;;;;;;5044838;28;20033;-57
2023/03/28 09:14:14;;;;;;;1.90;1.00;;;;;;;;;;5044481;28;20037;-57
2023/03/28 09:16:57;;;;;;;4.00;1.30;;;;;;;;;;5050362;28;20041;-57
2023/03/28 09:19:27;;;;;;;5.50;2.00;;;;;;;;;;5048241;28;20370;-56
2023/03/28 09:22:25;;;;;;;2.20;0.90;;;;;;;;;;5039500;28;20422;-57
2023/03/28 09:24:55;;;;;;;1.73;0.93;;;;;;;;;;5009188;28;20063;-56
2023/03/28 09:27:24;;;;;;;4.10;1.30;;;;;;;;;;5053368;28;20041;-56
2023/03/28 09:29:51;;;;;;;4.65;1.45;;;;;;;;;;5041084;28;20037;-57
2023/03/28 09:32:21;;;;;;;5.03;1.90;;;;;;;;;;5030641;28;20508;-57
2023/03/28 09:34:49;;;;;;;2.92;1.60;;;;;;;;;;5048687;28;20037;-57
2023/03/28 09:37:21;;;;;;;5.45;1.30;;;;;;;;;;5037176;28;20075;-56
2023/03/28 09:39:50;;;;;;;7.18;1.40;;;;;;;;;;5041562;28;20107;-57
2023/03/28 09:42:26;;;;;;;3.05;1.35;;;;;;;;;;5040246;28;20075;-59
2023/03/28 09:45:16;;;;;;;3.83;2.05;;;;;;;;;;5047213;28;20059;-57
2023/03/28 09:47:46;;;;;;;4.60;2.08;;;;;;;;;;4994507;28;20057;-57
2023/03/28 09:50:16;;;;;;;5.05;1.50;;;;;;;;;;5049873;28;20044;-56
2023/03/28 09:52:43;;;;;;;3.30;1.58;;;;;;;;;;5049404;28;20044;-56
2023/03/28 09:55:15;;;;;;;4.85;1.60;;;;;;;;;;5048718;28;20048;-57
2023/03/28 09:58:00;;;;;;;5.72;2.40;;;;;;;;;;5042751;28;20049;-56
2023/03/28 10:00:27;;;;;;;5.68;2.50;;;;;;;;;;5048562;28;20185;-56
2023/03/28 10:02:53;;;;;;;8.15;2.58;;;;;;;;;;5064041;28;20076;-56
2023/03/28 10:05:30;;;;;;;4.00;1.98;;;;;;;;;;5051743;28;20037;-56
2023/03/28 10:07:58;;;;;;;5.53;2.28;;;;;;;;;;5026866;28;20367;-56
2023/03/28 10:10:24;;;;;;;3.30;2.00;;;;;;;;;;5053023;28;20350;-56
2023/03/28 10:12:55;;;;;;;5.32;2.22;;;;;;;;;;5047514;28;20431;-57
2023/03/28 10:15:38;;;;;;;4.50;2.03;;;;;;;;;;5056308;28;20463;-58
2023/03/28 10:18:05;;;;;;;11.77;2.28;;;;;;;;;;5046287;28;20066;-57
2023/03/28 10:20:36;;;;;;;6.32;2.20;;;;;;;;;;5050388;28;20041;-58
2023/03/28 10:23:03;;;;;;;5.05;1.95;;;;;;;;;;5042249;28;20439;-57
2023/03/28 10:25:36;;;;;;;3.40;1.92;;;;;;;;;;5047399;28;20079;-58
2023/03/28 10:28:03;;;;;;;5.40;2.83;;;;;;;;;;5059313;28;20505;-58
2023/03/28 10:30:30;;;;;;;6.00;2.03;;;;;;;;;;5060504;28;20570;-58
2023/03/28 10:33:08;;;;;;;4.53;2.17;;;;;;;;;;5055301;28;20055;-57
2023/03/28 10:35:35;;;;;;;4.22;2.20;;;;;;;;;;5050492;28;20083;-58
2023/03/28 10:38:04;;;;;;;8.80;2.75;;;;;;;;;;5033148;28;20073;-58
2023/03/28 10:40:31;;;;;;;4.93;2.30;;;;;;;;;;5057258;28;20041;-58
2023/03/28 10:42:58;;;;;;;3.90;2.20;;;;;;;;;;5051708;28;20048;-58
2023/03/28 10:45:38;;;;;;;7.38;3.13;;;;;;;;;;5027292;28;20076;-58
2023/03/28 10:48:14;;;;;;;7.05;2.30;;;;;;;;;;5052867;28;20397;-59
2023/03/28 10:50:45;;;;;;;6.72;2.95;;;;;;;;;;5041548;28;20040;-59
2023/03/28 10:53:17;;;;;;;5.65;3.17;;;;;;;;;;5048281;28;20037;-58
2023/03/28 10:56:04;;;;;;;7.00;2.60;;;;;;;;;;5050484;28;20044;-58
2023/03/28 10:58:39;;;;;;;3.72;2.25;;;;;;;;;;5021978;28;20476;-58
2023/03/28 11:01:18;;;;;;;12.70;2.83;;;;;;;;;;5058739;28;20469;-58
2023/03/28 11:03:47;;;;;;;4.72;2.47;;;;;;;;;;5028824;28;20046;-58
2023/03/28 11:06:29;;;;;;;5.60;2.83;;;;;;;;;;5049211;28;20039;-58
2023/03/28 11:09:04;;;;;;;5.50;2.37;;;;;;;;;;5047212;28;20036;-58
2023/03/28 11:11:36;;;;;;;7.68;3.03;;;;;;;;;;5047528;28;20784;-58
2023/03/28 11:14:05;;;;;;;4.45;2.83;;;;;;;;;;5050088;28;20080;-58
2023/03/28 11:16:50;;;;;;;6.40;2.35;;;;;;;;;;5053252;28;20530;-58
2023/03/28 11:19:22;;;;;;;7.18;2.97;;;;;;;;;;5056079;28;20071;-58
2023/03/28 11:21:53;;;;;;;4.50;3.38;;;;;;;;;;5051272;28;20187;-58
2023/03/28 11:24:19;;;;;;;4.88;2.53;;;;;;;;;;5051374;28;20044;-57
2023/03/28 11:26:45;;;;;;;6.40;2.80;;;;;;;;;;5031232;28;20041;-58
2023/03/28 11:29:11;;;;;;;6.57;2.72;;;;;;;;;;5047000;28;20227;-58
2023/03/28 11:31:39;;;;;;;4.40;2.60;;;;;;;;;;5051085;28;20037;-57
2023/03/28 11:34:05;;;;;;;7.82;3.05;;;;;;;;;;5056487;28;20045;-58
2023/03/28 11:36:52;;;;;;;4.65;2.70;;;;;;;;;;5050149;28;20075;-58
2023/03/28 11:39:21;;;;;;;4.97;2.90;;;;;;;;;;5049226;28;20076;-58
2023/03/28 11:41:48;;;;;;;6.70;2.60;;;;;;;;;;5030332;28;20072;-58
2023/03/28 11:44:28;;;;;;;5.20;2.90;;;;;;;;;;5037972;28;20127;-57
2023/03/28 11:47:23;;;;;;;6.30;2.75;;;;;;;;;;5048542;28;20076;-58
2023/03/28 11:50:13;;;;;;;5.80;2.88;;;;;;;;;;5028262;28;20098;-58
2023/03/28 11:53:00;;;;;;;4.72;2.42;;;;;;;;;;5051321;28;20040;-58
2023/03/28 11:55:28;;;;;;;3.90;2.20;;;;;;;;;;5046099;28;20116;-58
2023/03/28 11:58:00;;;;;;;7.95;2.83;;;;;;;;;;5048041;28;20107;-58
2023/03/28 12:00:30;;;;;;;7.47;2.35;;;;;;;;;;5056033;28;20094;-58
2023/03/28 12:02:58;;;;;;;8.65;3.80;;;;;;;;;;5036838;28;20514;-58
2023/03/28 12:05:31;;;;;;;6.38;2.90;;;;;;;;;;5018751;28;20045;-58
2023/03/28 12:08:10;;;;;;;4.75;2.70;;;;;;;;;;5047670;28;20055;-58
2023/03/28 12:10:37;;;;;;;5.50;3.35;;;;;;;;;;5050667;28;20048;-58
2023/03/28 12:13:25;;;;;;;10.90;3.38;;;;;;;;;;5050635;28;20040;-58
2023/03/28 12:15:56;;;;;;;5.95;2.28;;;;;;;;;;5050042;28;20041;-58
2023/03/28 12:18:31;;;;;;;6.85;3.05;;;;;;;;;;5048836;28;20464;-58
2023/03/28 12:21:01;;;;;;;8.85;2.80;;;;;;;;;;5055385;28;20102;-58
2023/03/28 12:23:37;;;;;;;6.43;3.25;;;;;;;;;;5041046;28;20523;-58
2023/03/28 12:26:27;;;;;;;6.82;3.40;;;;;;;;;;4996533;28;20032;-58
2023/03/28 12:28:56;;;;;;;7.90;3.50;;;;;;;;;;5012545;28;20056;-58
2023/03/28 12:31:30;;;;;;;4.13;3.03;;;;;;;;;;5049527;28;20724;-58
2023/03/28 12:34:05;;;;;;;5.28;3.22;;;;;;;;;;5048652;28;20033;-58
2023/03/28 12:36:50;;;;;;;5.38;3.10;;;;;;;;;;5013389;28;20041;-58
2023/03/28 12:39:33;;;;;;;11.07;3.95;;;;;;;;;;5044693;28;20074;-58
2023/03/28 12:42:01;;;;;;;5.88;3.03;;;;;;;;;;5044834;28;20036;-58
2023/03/28 12:44:28;;;;;;;8.85;4.03;;;;;;;;;;5043436;28;20106;-58
2023/03/28 12:47:04;;;;;;;4.70;3.53;;;;;;;;;;5051288;28;20059;-58
2023/03/28 12:49:34;;;;;;;4.47;2.85;;;;;;;;;;5036858;28;20162;-58
2023/03/28 12:52:03;;;;;;;9.00;3.17;;;;;;;;;;5051308;28;20116;-58
2023/03/28 12:54:31;;;;;;;6.95;3.85;;;;;;;;;;5048069;28;20064;-58
2023/03/28 12:57:00;;;;;;;6.15;3.85;;;;;;;;;;5045040;28;20039;-58
2023/03/28 12:59:52;;;;;;;6.45;3.17;;;;;;;;;;5046552;28;20513;-58
2023/03/28 13:02:19;;;;;;;7.13;2.95;;;;;;;;;;5048324;28;20494;-58
2023/03/28 13:04:52;;;;;;;6.68;3.58;;;;;;;;;;5052129;28;20120;-58
2023/03/28 13:07:18;;;;;;;;;;;;;;;;;;5050306;28;20055;-58
2023/03/28 13:09:59;;;;;;;8.77;4.50;;;;;;;;;;5054422;28;20437;-58
2023/03/28 13:12:31;;;;;;;5.82;3.40;;;;;;;;;;5055064;28;20458;-58
2023/03/28 13:14:59;;;;;;;9.13;4.00;;;;;;;;;;5052711;28;20032;-58
2023/03/28 13:17:27;;;;;;;5.00;3.15;;;;;;;;;;5056007;28;20041;-58
2023/03/28 13:19:54;;;;;;;3.80;2.92;;;;;;;;;;5055712;28;20068;-58
2023/03/28 13:22:31;;;;;;;7.65;3.72;;;;;;;;;;5053607;28;20037;-59
2023/03/28 13:25:19;;;;;;;7.65;3.28;;;;;;;;;;5051500;28;20128;-58
2023/03/28 13:27:46;;;;;;;8.13;3.72;;;;;;;;;;5056369;28;20116;-58
2023/03/28 13:30:20;;;;;;;6.30;3.10;;;;;;;;;;5052200;28;20072;-58
2023/03/28 13:32:50;;;;;;;5.20;2.85;;;;;;;;;;5054939;28;20047;-58
2023/03/28 13:35:35;;;;;;;6.38;2.83;;;;;;;;;;5058989;28;20087;-58
2023/03/28 13:38:21;;;;;;;7.53;3.33;;;;;;;;;;5043814;28;20048;-57
2023/03/28 13:41:14;;;;;;;6.72;3.35;;;;;;;;;;5048048;28;20060;-58
2023/03/28 13:43:52;;;;;;;6.32;3.55;;;;;;;;;;5020201;28;20052;-59
2023/03/28 13:46:18;;;;;;;7.45;3.25;;;;;;;;;;5051572;28;20090;-58
2023/03/28 13:49:03;;;;;;;7.70;3.42;;;;;;;;;;5051906;28;20041;-58
2023/03/28 13:51:30;;;;;;;6.38;3.70;;;;;;;;;;5051506;28;20518;-58
2023/03/28 13:53:57;;;;;;;5.38;3.58;;;;;;;;;;5059701;28;20051;-58
2023/03/28 13:56:23;;;;;;;7.90;3.72;;;;;;;;;;5052128;28;20045;-58
2023/03/28 13:58:50;;;;;;;6.57;3.33;;;;;;;;;;5051543;28;20037;-58
2023/03/28 14:01:18;;;;;;;7.68;3.75;;;;;;;;;;5049765;28;20045;-58
2023/03/28 14:03:47;;;;;;;4.75;3.60;;;;;;;;;;5056147;28;20412;-58
2023/03/28 14:06:24;;;;;;;8.13;4.70;;;;;;;;;;5039107;28;20462;-58
2023/03/28 14:08:52;;;;;;;10.75;4.72;;;;;;;;;;5051793;28;20065;-58
2023/03/28 14:11:22;;;;;;;5.63;4.10;;;;;;;;;;5052516;28;20198;-58
2023/03/28 14:13:49;;;;;;;7.35;4.97;;;;;;;;;;5059221;28;20386;-58
2023/03/28 14:16:16;;;;;;;8.52;4.30;;;;;;;;;;5051065;28;20037;-59
2023/03/28 14:18:50;;;;;;;6.25;4.50;;;;;;;;;;5051945;28;20135;-58
2023/03/28 14:21:16;;;;;;;6.43;4.50;;;;;;;;;;5052015;28;20121;-58
2023/03/28 14:23:50;;;;;;;6.43;4.63;;;;;;;;;;5052557;28;20085;-58
2023/03/28 14:26:22;;;;;;;11.45;5.57;;;;;;;;;;5052721;28;20040;-58
2023/03/28 14:28:50;;;;;;;8.85;5.18;;;;;;;;;;5055569;28;20116;-58
2023/03/28 14:31:29;;;;;;;9.73;5.00;;;;;;;;;;5052476;28;20139;-58
2023/03/28 14:33:59;;;;;;;10.55;4.55;;;;;;;;;;5051587;28;20048;-58
2023/03/28 14:36:29;;;;;;;11.30;5.03;;;;;;;;;;5051803;28;20524;-58
2023/03/28 14:39:01;;;;;;;9.90;5.22;;;;;;;;;;5053203;28;20064;-58
2023/03/28 14:41:30;;;;;;;7.28;4.68;;;;;;;;;;5034492;28;20041;-58
2023/03/28 14:43:57;;;;;;;9.32;5.22;;;;;;;;;;5050840;28;20114;-57
2023/03/28 14:46:25;;;;;;;5.85;4.32;;;;;;;;;;5050978;28;20520;-58
2023/03/28 14:48:52;;;;;;;13.93;4.55;;;;;;;;;;5051448;28;20054;-58
2023/03/28 14:51:21;;;;;;;6.85;4.30;;;;;;;;;;5031485;28;20115;-58
2023/03/28 14:53:47;;;;;;;7.97;4.07;;;;;;;;;;5043293;28;20080;-58
2023/03/28 14:56:15;;;;;;;7.55;3.28;;;;;;;;;;5047402;28;20553;-59
2023/03/28 14:58:43;;;;;;;5.10;2.97;;;;;;;;;;5058406;28;20511;-58